Time;durP1;ratioP1;P1;durP2;ratioP2;P2;SDS_P1;SDS_P2;PMS_P1;PMS_P2;Temp;Humidity;BMP_temperature;BMP_pressure;BME280_temperature;BME280_humidity;BME280_pressure;Samples;Min_cycle;Max_cycle;Signal;HPM_P1;HPM_P2
2023/04/22 00:00:07;;;;;;;7.80;7.00;;;11.30;93.30;;;;;;4973721;28;20546;-68
2023/04/22 00:02:37;;;;;;;8.03;6.90;;;11.20;93.50;;;;;;4972434;28;20599;-68
2023/04/22 00:05:05;;;;;;;7.77;7.07;;;11.30;93.10;;;;;;4973531;28;20460;-69
2023/04/22 00:07:32;;;;;;;10.63;8.10;;;11.50;92.50;;;;;;4973897;28;20481;-68
2023/04/22 00:10:00;;;;;;;9.10;8.13;;;11.50;92.20;;;;;;4973367;28;20457;-70
2023/04/22 00:12:26;;;;;;;8.73;7.93;;;11.60;91.90;;;;;;4972460;28;20985;-68
2023/04/22 00:14:53;;;;;;;9.47;8.60;;;11.70;91.90;;;;;;4973614;28;20441;-68
2023/04/22 00:17:20;;;;;;;8.90;8.10;;;11.60;92.00;;;;;;4973452;28;20447;-68
2023/04/22 00:19:47;;;;;;;8.20;7.27;;;11.50;92.20;;;;;;4974622;28;20447;-69
2023/04/22 00:22:15;;;;;;;6.93;6.20;;;11.40;92.60;;;;;;4974183;28;20538;-68
2023/04/22 00:24:45;;;;;;;8.17;6.43;;;11.40;93.20;;;;;;4974757;28;20448;-69
2023/04/22 00:27:13;;;;;;;9.30;8.30;;;11.40;92.60;;;;;;4976998;28;20998;-69
2023/04/22 00:29:39;;;;;;;9.27;8.33;;;11.40;92.50;;;;;;4976048;28;20442;-69
2023/04/22 00:32:06;;;;;;;8.47;7.53;;;11.30;92.60;;;;;;4987877;28;20467;-70
2023/04/22 00:34:33;;;;;;;10.67;9.00;;;11.40;92.50;;;;;;4994537;28;20539;-70
2023/04/22 00:37:00;;;;;;;9.20;8.40;;;11.40;92.60;;;;;;4989625;28;20471;-71
2023/04/22 00:39:27;;;;;;;10.43;9.10;;;11.30;92.90;;;;;;4976968;28;20455;-70
2023/04/22 00:41:55;;;;;;;10.90;9.77;;;11.20;93.20;;;;;;4986335;28;20474;-68
2023/04/22 00:44:24;;;;;;;8.23;7.43;;;11.10;93.40;;;;;;4993007;28;20447;-68
2023/04/22 00:46:51;;;;;;;9.93;9.00;;;11.00;94.10;;;;;;4993518;28;20450;-68
2023/04/22 00:49:19;;;;;;;9.40;8.07;;;10.90;94.20;;;;;;4993567;28;20435;-68
2023/04/22 00:51:46;;;;;;;11.47;10.17;;;10.90;94.70;;;;;;4992519;28;20459;-68
2023/04/22 00:54:13;;;;;;;10.93;9.90;;;10.80;95.10;;;;;;4991136;28;20444;-69
2023/04/22 00:56:40;;;;;;;9.03;8.33;;;10.80;95.30;;;;;;4992082;28;20450;-70
2023/04/22 00:59:08;;;;;;;9.37;8.37;;;10.80;95.50;;;;;;4973052;28;20477;-69
2023/04/22 01:01:36;;;;;;;10.70;9.63;;;10.90;95.40;;;;;;4972847;28;20468;-69
2023/04/22 01:04:04;;;;;;;11.43;10.27;;;10.90;95.30;;;;;;4971711;28;20480;-68
2023/04/22 01:06:31;;;;;;;10.27;9.37;;;10.80;95.50;;;;;;4972709;28;20443;-69
2023/04/22 01:08:58;;;;;;;12.77;10.17;;;10.80;95.70;;;;;;4972841;28;20449;-68
2023/04/22 01:11:25;;;;;;;10.97;9.97;;;10.80;95.80;;;;;;4972567;28;20471;-69
2023/04/22 01:13:52;;;;;;;11.50;10.30;;;10.80;95.90;;;;;;4975374;28;20833;-69
2023/04/22 01:16:19;;;;;;;11.43;10.43;;;10.80;96.10;;;;;;4991942;28;20441;-68
2023/04/22 01:18:47;;;;;;;12.33;10.77;;;10.70;96.10;;;;;;4992278;28;20483;-69
2023/04/22 01:21:14;;;;;;;11.00;10.00;;;10.80;96.20;;;;;;4991937;28;20444;-69
2023/04/22 01:23:42;;;;;;;10.97;9.87;;;10.80;96.00;;;;;;4990960;28;20485;-69
2023/04/22 01:26:09;;;;;;;10.80;9.90;;;10.90;95.70;;;;;;4992181;28;20448;-69
2023/04/22 01:28:36;;;;;;;11.40;10.20;;;11.00;95.80;;;;;;4992020;28;20447;-68
2023/04/22 01:31:03;;;;;;;11.57;10.57;;;11.00;95.40;;;;;;4983197;28;20459;-68
2023/04/22 01:33:30;;;;;;;11.37;9.43;;;10.90;95.50;;;;;;4971924;28;20441;-69
2023/04/22 01:35:57;;;;;;;11.20;10.20;;;10.90;95.90;;;;;;4972724;28;20448;-68
2023/04/22 01:38:24;;;;;;;10.50;9.60;;;10.90;95.60;;;;;;4973009;28;20455;-69
2023/04/22 01:40:53;;;;;;;10.93;9.93;;;10.80;95.90;;;;;;4972387;28;20457;-69
2023/04/22 01:43:20;;;;;;;10.00;9.10;;;10.70;96.10;;;;;;4971166;28;20480;-69
2023/04/22 01:45:46;;;;;;;10.40;9.40;;;10.60;96.30;;;;;;4972150;28;20961;-70
2023/04/22 01:48:13;;;;;;;9.50;8.70;;;10.60;96.40;;;;;;4986006;28;20791;-69
2023/04/22 01:50:40;;;;;;;9.90;9.00;;;10.60;96.60;;;;;;4991565;28;20447;-69
2023/04/22 01:53:08;;;;;;;11.30;10.13;;;10.70;96.40;;;;;;4990120;28;20460;-69
2023/04/22 01:55:36;;;;;;;10.53;9.63;;;10.80;96.20;;;;;;4988754;28;20455;-68
2023/04/22 01:58:04;;;;;;;12.70;10.73;;;10.90;95.80;;;;;;4972146;28;20467;-68
2023/04/22 02:00:32;;;;;;;14.70;10.70;;;10.90;95.70;;;;;;4972550;28;20922;-69
2023/04/22 02:02:58;;;;;;;10.63;9.63;;;10.80;95.80;;;;;;4970949;28;21034;-69
2023/04/22 02:05:25;;;;;;;10.80;9.80;;;10.70;96.20;;;;;;4971633;28;20444;-69
2023/04/22 02:07:53;;;;;;;11.20;10.10;;;10.60;96.50;;;;;;4971567;28;20440;-69
2023/04/22 02:10:19;;;;;;;10.97;9.87;;;10.50;96.80;;;;;;4977611;28;20455;-69
2023/04/22 02:12:46;;;;;;;10.80;9.70;;;10.50;97.00;;;;;;4989408;28;20452;-69
2023/04/22 02:15:15;;;;;;;10.93;9.93;;;10.50;97.10;;;;;;4990902;28;20454;-69
2023/04/22 02:17:43;;;;;;;10.97;10.07;;;10.60;96.80;;;;;;4990676;28;20445;-68
2023/04/22 02:20:11;;;;;;;10.57;9.57;;;10.70;96.40;;;;;;4991551;28;20448;-67
2023/04/22 02:22:38;;;;;;;11.20;10.17;;;10.70;96.30;;;;;;5008973;28;20469;-69
2023/04/22 02:25:06;;;;;;;11.23;10.13;;;10.70;96.30;;;;;;5010070;28;20849;-68
2023/04/22 02:27:33;;;;;;;11.13;9.33;;;10.70;96.10;;;;;;4989780;28;20458;-68
2023/04/22 02:30:00;;;;;;;10.50;9.40;;;10.60;96.40;;;;;;4971114;28;20447;-69
2023/04/22 02:32:28;;;;;;;10.80;9.67;;;10.50;96.70;;;;;;4970232;28;20456;-69
2023/04/22 02:34:54;;;;;;;10.17;9.37;;;10.30;96.80;;;;;;4971092;28;20443;-68
2023/04/22 02:37:22;;;;;;;10.20;9.30;;;10.20;97.00;;;;;;4970947;28;20446;-70
2023/04/22 02:39:49;;;;;;;10.10;9.23;;;10.10;97.20;;;;;;4971134;28;20502;-72
2023/04/22 02:42:16;;;;;;;11.33;9.43;;;10.00;97.60;;;;;;4970311;28;20474;-69
2023/04/22 02:44:43;;;;;;;11.50;9.97;;;10.00;97.80;;;;;;4971615;28;21231;-69
2023/04/22 02:47:09;;;;;;;9.57;8.60;;;10.00;98.10;;;;;;4971201;28;20451;-69
2023/04/22 02:49:38;;;;;;;11.73;10.03;;;10.00;98.00;;;;;;4970942;28;20450;-69
2023/04/22 02:52:05;;;;;;;11.60;10.50;;;10.10;98.00;;;;;;4971644;28;20482;-70
2023/04/22 02:54:32;;;;;;;11.10;10.10;;;10.10;97.60;;;;;;4974242;28;20439;-70
2023/04/22 02:57:00;;;;;;;11.03;9.93;;;10.10;97.40;;;;;;4975001;28;20442;-70
2023/04/22 02:59:26;;;;;;;11.47;10.47;;;10.10;97.60;;;;;;4976268;28;20440;-68
2023/04/22 03:01:53;;;;;;;11.13;10.07;;;10.00;97.60;;;;;;4994426;28;20696;-68
2023/04/22 03:04:20;;;;;;;10.93;9.83;;;9.90;98.60;;;;;;4993095;28;20490;-68
2023/04/22 03:06:48;;;;;;;10.70;9.70;;;9.90;98.70;;;;;;4993798;28;20544;-68
2023/04/22 03:09:16;;;;;;;9.90;8.90;;;9.80;98.70;;;;;;4994357;28;20455;-69
2023/04/22 03:11:42;;;;;;;12.23;10.57;;;9.90;98.90;;;;;;4994127;28;20841;-70
2023/04/22 03:14:09;;;;;;;10.17;9.20;;;9.80;98.90;;;;;;4993140;28;20430;-68
2023/04/22 03:16:36;;;;;;;11.67;10.57;;;9.70;99.20;;;;;;4986413;28;20836;-68
2023/04/22 03:19:03;;;;;;;11.53;10.33;;;9.60;99.30;;;;;;4974587;28;20458;-68
2023/04/22 03:21:31;;;;;;;12.63;11.40;;;9.70;99.70;;;;;;4974488;28;20471;-68
2023/04/22 03:23:59;;;;;;;12.13;10.93;;;9.70;99.70;;;;;;4973471;28;20488;-68
2023/04/22 03:26:26;;;;;;;12.50;11.17;;;9.70;99.90;;;;;;4974708;28;20448;-69
2023/04/22 03:28:52;;;;;;;12.00;11.00;;;9.80;99.60;;;;;;4974751;28;20438;-68
2023/04/22 03:31:19;;;;;;;11.47;10.47;;;9.80;99.70;;;;;;4974610;28;20447;-69
2023/04/22 03:33:46;;;;;;;11.90;10.60;;;9.70;99.70;;;;;;4974285;28;20453;-70
2023/04/22 03:36:13;;;;;;;11.77;10.60;;;9.80;99.80;;;;;;4974600;28;20455;-69
2023/04/22 03:38:40;;;;;;;11.80;10.60;;;9.80;99.70;;;;;;4974458;28;20447;-69
2023/04/22 03:41:08;;;;;;;13.60;12.27;;;9.70;99.50;;;;;;4974052;28;20455;-69
2023/04/22 03:43:35;;;;;;;11.97;10.77;;;9.70;99.60;;;;;;4972786;28;20607;-69
2023/04/22 03:46:02;;;;;;;12.10;9.83;;;9.70;99.60;;;;;;4974302;28;20469;-69
2023/04/22 03:48:33;;;;;;;11.80;10.60;;;9.60;99.60;;;;;;4973855;28;20456;-68
2023/04/22 03:51:00;;;;;;;10.57;9.67;;;9.50;99.60;;;;;;4974953;28;20459;-70
2023/04/22 03:53:27;;;;;;;10.60;9.70;;;9.50;99.70;;;;;;4972819;28;20435;-69
2023/04/22 03:55:54;;;;;;;9.87;9.00;;;9.30;99.70;;;;;;4978681;28;20472;-69
2023/04/22 03:58:22;;;;;;;12.27;11.03;;;9.30;99.70;;;;;;4993466;28;20438;-70
2023/04/22 04:00:49;;;;;;;12.30;11.13;;;9.30;99.80;;;;;;4993091;28;20440;-69
2023/04/22 04:03:16;;;;;;;11.77;10.67;;;9.40;99.90;;;;;;4991621;28;20827;-68
2023/04/22 04:05:42;;;;;;;12.97;11.67;;;9.40;99.90;;;;;;4993545;28;20445;-69
2023/04/22 04:08:10;;;;;;;11.73;10.63;;;9.40;99.90;;;;;;4993377;28;20449;-68
2023/04/22 04:10:37;;;;;;;12.03;10.83;;;9.50;99.80;;;;;;4985264;28;20461;-69
2023/04/22 04:13:03;;;;;;;12.70;9.77;;;9.50;99.70;;;;;;4972378;28;20505;-69
2023/04/22 04:15:32;;;;;;;12.00;10.90;;;9.30;99.60;;;;;;4973590;28;21031;-69
2023/04/22 04:18:00;;;;;;;11.20;10.00;;;9.30;99.80;;;;;;4973784;28;20462;-69
2023/04/22 04:20:27;;;;;;;11.23;10.13;;;9.10;99.90;;;;;;4973617;28;20439;-69
2023/04/22 04:22:53;;;;;;;10.87;9.87;;;9.10;99.90;;;;;;4972682;28;20464;-69
2023/04/22 04:25:21;;;;;;;11.93;10.80;;;9.00;99.90;;;;;;4973550;28;20600;-69
2023/04/22 04:27:49;;;;;;;11.07;9.97;;;9.00;99.90;;;;;;4986385;28;20457;-69
2023/04/22 04:30:16;;;;;;;12.00;10.80;;;9.00;99.90;;;;;;4992996;28;20437;-69
2023/04/22 04:32:44;;;;;;;11.60;10.40;;;8.90;99.90;;;;;;4991453;28;20520;-70
2023/04/22 04:35:12;;;;;;;11.60;10.50;;;9.00;99.90;;;;;;4991063;28;20453;-69
2023/04/22 04:37:39;;;;;;;29.63;12.90;;;9.10;99.90;;;;;;4992589;28;20450;-69
2023/04/22 04:40:09;;;;;;;11.87;10.67;;;9.30;99.90;;;;;;4992618;28;20465;-71
2023/04/22 04:42:36;;;;;;;11.60;10.50;;;9.20;99.90;;;;;;4991310;28;20473;-69
2023/04/22 04:45:03;;;;;;;12.73;11.03;;;9.30;99.80;;;;;;4992236;28;20493;-69
2023/04/22 04:47:32;;;;;;;11.97;10.83;;;9.20;99.90;;;;;;4992331;28;20443;-69
2023/04/22 04:50:03;;;;;;;11.70;10.60;;;9.20;99.90;;;;;;4972952;28;20974;-69
2023/04/22 04:52:30;;;;;;;11.63;10.53;;;9.10;99.90;;;;;;4971919;28;20473;-70
2023/04/22 04:54:57;;;;;;;12.23;11.00;;;9.10;99.90;;;;;;4973388;28;20445;-70
2023/04/22 04:57:24;;;;;;;12.63;11.30;;;9.10;99.90;;;;;;4974902;28;20473;-69
2023/04/22 04:59:50;;;;;;;12.60;11.47;;;9.30;99.90;;;;;;4973031;28;20446;-69
2023/04/22 05:02:17;;;;;;;12.43;11.23;;;9.30;99.90;;;;;;4972373;28;20472;-70
2023/04/22 05:04:45;;;;;;;12.27;10.80;;;9.40;99.90;;;;;;4973106;28;20917;-69
2023/04/22 05:07:13;;;;;;;10.97;9.97;;;9.50;99.90;;;;;;4972709;28;20880;-70
2023/04/22 05:09:40;;;;;;;11.53;10.50;;;9.60;99.90;;;;;;4972139;28;20442;-70
2023/04/22 05:12:07;;;;;;;11.27;10.17;;;9.70;99.80;;;;;;4972418;28;20465;-69
2023/04/22 05:14:34;;;;;;;12.40;10.50;;;9.70;99.30;;;;;;4971031;28;20496;-70
2023/04/22 05:17:02;;;;;;;12.53;11.00;;;9.70;99.30;;;;;;4972477;28;20449;-69
2023/04/22 05:19:29;;;;;;;10.73;9.80;;;9.80;99.10;;;;;;4972389;28;20458;-70
2023/04/22 05:21:56;;;;;;;11.67;10.57;;;9.80;99.10;;;;;;4973264;28;20997;-67
2023/04/22 05:24:24;;;;;;;11.17;10.07;;;9.80;99.20;;;;;;4971386;28;20484;-68
2023/04/22 05:26:51;;;;;;;11.13;10.03;;;9.90;99.30;;;;;;4972248;28;20451;-68
2023/04/22 05:29:18;;;;;;;12.00;10.50;;;9.90;99.30;;;;;;5003016;28;20451;-68
2023/04/22 05:31:45;;;;;;;13.20;10.50;;;10.00;98.30;;;;;;5012211;28;20888;-69
2023/04/22 05:34:12;;;;;;;10.93;9.87;;;10.00;98.20;;;;;;5010284;28;20935;-69
2023/04/22 05:36:39;;;;;;;11.57;10.50;;;10.00;98.20;;;;;;5011560;28;20443;-68
2023/04/22 05:39:12;;;;;;;11.27;10.20;;;10.00;98.30;;;;;;4979823;28;20460;-68
2023/04/22 05:41:40;;;;;;;10.03;9.13;;;10.10;98.30;;;;;;4972217;28;20473;-68
2023/04/22 05:44:07;;;;;;;10.43;9.33;;;10.10;98.20;;;;;;4970838;28;20479;-68
2023/04/22 05:46:33;;;;;;;11.67;10.57;;;10.10;98.10;;;;;;4972038;28;20518;-68
2023/04/22 05:49:00;;;;;;;10.50;9.37;;;10.20;97.30;;;;;;4971974;28;20454;-69
2023/04/22 05:51:27;;;;;;;12.03;10.93;;;10.20;97.30;;;;;;4971652;28;20467;-69
2023/04/22 05:53:54;;;;;;;10.60;9.50;;;10.30;96.90;;;;;;4971882;28;20459;-68
2023/04/22 05:56:21;;;;;;;11.80;10.80;;;10.20;97.20;;;;;;4972690;28;20447;-67
2023/04/22 05:58:49;;;;;;;11.60;10.50;;;10.30;97.40;;;;;;4975016;28;20456;-68
2023/04/22 06:01:16;;;;;;;10.40;9.50;;;10.30;97.40;;;;;;4971813;28;20449;-68
2023/04/22 06:03:42;;;;;;;9.97;9.07;;;10.40;97.40;;;;;;4970155;28;20444;-69
2023/04/22 06:06:09;;;;;;;11.47;10.47;;;10.50;97.20;;;;;;4971751;28;20450;-68
2023/04/22 06:08:36;;;;;;;11.07;10.03;;;10.70;97.10;;;;;;4971523;28;20981;-69
2023/04/22 06:11:03;;;;;;;10.07;9.27;;;10.70;97.10;;;;;;4983428;28;20461;-69
2023/04/22 06:13:29;;;;;;;10.50;9.40;;;10.90;97.00;;;;;;4989876;28;20443;-69
2023/04/22 06:15:58;;;;;;;10.60;9.70;;;11.10;96.80;;;;;;4990924;28;20440;-69
2023/04/22 06:18:24;;;;;;;10.17;9.20;;;11.40;96.50;;;;;;4990730;28;20951;-71
2023/04/22 06:20:51;;;;;;;11.93;10.77;;;11.60;96.20;;;;;;4991020;28;20449;-70
2023/04/22 06:23:18;;;;;;;10.63;9.60;;;11.90;95.70;;;;;;4989957;28;20470;-70
2023/04/22 06:25:46;;;;;;;10.20;9.30;;;12.30;95.00;;;;;;4990819;28;20569;-69
2023/04/22 06:28:12;;;;;;;11.83;8.80;;;12.60;94.20;;;;;;4989307;28;20448;-69
2023/04/22 06:30:39;;;;;;;9.20;8.50;;;12.90;92.20;;;;;;4990883;28;20455;-69
2023/04/22 06:33:07;;;;;;;8.30;7.60;;;13.00;92.00;;;;;;4989433;28;20469;-69
2023/04/22 06:35:34;;;;;;;8.80;8.00;;;13.10;91.80;;;;;;4991278;28;20818;-70
2023/04/22 06:38:01;;;;;;;9.80;8.90;;;13.40;90.90;;;;;;4990770;28;20460;-69
2023/04/22 06:40:27;;;;;;;8.97;8.17;;;13.50;89.80;;;;;;4990398;28;20462;-68
2023/04/22 06:42:54;;;;;;;8.80;7.90;;;13.70;89.00;;;;;;4988985;28;20471;-69
2023/04/22 06:45:21;;;;;;;9.30;8.23;;;13.70;89.10;;;;;;4989836;28;20855;-68
2023/04/22 06:47:48;;;;;;;9.30;8.60;;;13.80;90.10;;;;;;4990609;28;20956;-69
2023/04/22 06:50:16;;;;;;;8.67;7.90;;;14.10;89.70;;;;;;4990965;28;20819;-69
2023/04/22 06:52:42;;;;;;;8.50;7.77;;;14.20;89.20;;;;;;4989451;28;20462;-69
2023/04/22 06:55:10;;;;;;;9.67;8.70;;;14.30;89.70;;;;;;4990605;28;20558;-69
2023/04/22 06:57:37;;;;;;;9.00;8.27;;;14.50;88.30;;;;;;4990487;28;20452;-69
2023/04/22 07:00:04;;;;;;;8.33;7.63;;;14.60;86.70;;;;;;4988994;28;20458;-69
2023/04/22 07:02:31;;;;;;;8.33;7.63;;;14.70;86.90;;;;;;4990080;28;20479;-69
2023/04/22 07:04:57;;;;;;;9.93;8.43;;;14.80;84.80;;;;;;4990602;28;20580;-69
2023/04/22 07:07:25;;;;;;;9.13;8.33;;;14.80;82.80;;;;;;4990899;28;20443;-69
2023/04/22 07:09:52;;;;;;;7.70;6.90;;;14.60;83.30;;;;;;4990750;28;20498;-69
2023/04/22 07:12:19;;;;;;;8.03;7.23;;;14.60;84.20;;;;;;4990134;28;20472;-70
2023/04/22 07:14:46;;;;;;;7.53;6.93;;;14.90;82.10;;;;;;4989568;28;20452;-69
2023/04/22 07:17:13;;;;;;;7.43;6.73;;;15.00;83.10;;;;;;4988760;28;20450;-70
2023/04/22 07:19:40;;;;;;;6.97;6.40;;;15.30;82.50;;;;;;4990416;28;20452;-69
2023/04/22 07:22:07;;;;;;;6.70;6.10;;;15.40;79.90;;;;;;4989748;28;20481;-68
2023/04/22 07:24:36;;;;;;;6.00;5.50;;;15.50;77.60;;;;;;4989263;28;20578;-68
2023/04/22 07:27:03;;;;;;;7.60;6.60;;;15.60;78.90;;;;;;4990248;28;20529;-68
2023/04/22 07:29:30;;;;;;;8.63;7.73;;;15.70;79.40;;;;;;4990750;28;20544;-69
2023/04/22 07:31:56;;;;;;;7.70;6.37;;;15.70;79.30;;;;;;4990797;28;20474;-69
2023/04/22 07:34:23;;;;;;;6.40;5.77;;;15.70;79.80;;;;;;4976103;28;20483;-69
2023/04/22 07:36:51;;;;;;;7.80;7.13;;;15.80;77.80;;;;;;4971101;28;20451;-70
2023/04/22 07:39:18;;;;;;;6.00;5.20;;;15.90;77.90;;;;;;4973288;28;20452;-70
2023/04/22 07:41:47;;;;;;;5.77;5.27;;;16.20;78.70;;;;;;4974182;28;20464;-68
2023/04/22 07:44:17;;;;;;;6.00;5.50;;;16.50;76.00;;;;;;4973285;28;20511;-69
2023/04/22 07:46:44;;;;;;;6.60;6.00;;;16.80;75.00;;;;;;4975245;28;20450;-69
2023/04/22 07:49:12;;;;;;;6.67;5.70;;;17.10;72.80;;;;;;4975667;28;20454;-70
2023/04/22 07:51:39;;;;;;;5.90;5.23;;;17.40;73.20;;;;;;4976731;28;20837;-68
2023/04/22 07:54:06;;;;;;;6.03;5.43;;;17.70;71.20;;;;;;4974278;28;21017;-68
2023/04/22 07:56:33;;;;;;;5.87;5.40;;;18.00;68.60;;;;;;4986977;28;20439;-69
2023/04/22 07:59:01;;;;;;;5.60;5.10;;;18.20;70.70;;;;;;4995181;28;20439;-69
2023/04/22 08:01:28;;;;;;;4.60;4.20;;;18.20;65.90;;;;;;4993619;28;20531;-69
2023/04/22 08:03:56;;;;;;;6.07;4.60;;;18.40;66.20;;;;;;4992085;28;20443;-69
2023/04/22 08:06:23;;;;;;;6.43;3.63;;;18.50;64.30;;;;;;4994298;28;20478;-70
2023/04/22 08:08:50;;;;;;;3.73;3.43;;;18.60;62.70;;;;;;4993893;28;20442;-68
2023/04/22 08:11:17;;;;;;;3.97;3.57;;;18.70;65.10;;;;;;4979092;28;20566;-69
2023/04/22 08:13:44;;;;;;;5.80;4.20;;;18.80;60.40;;;;;;4973001;28;20452;-70
2023/04/22 08:16:12;;;;;;;4.47;4.07;;;18.90;59.70;;;;;;4974066;28;20454;-69
2023/04/22 08:18:39;;;;;;;4.00;3.70;;;19.10;58.80;;;;;;4973878;28;20447;-69
2023/04/22 08:21:06;;;;;;;3.97;3.67;;;19.20;56.80;;;;;;4974192;28;20540;-69
2023/04/22 08:23:33;;;;;;;3.60;3.30;;;18.90;57.70;;;;;;4972680;28;20510;-69
2023/04/22 08:26:00;;;;;;;5.27;4.40;;;18.70;59.00;;;;;;4974241;28;20479;-69
2023/04/22 08:28:26;;;;;;;3.70;3.50;;;18.60;59.70;;;;;;4992734;28;20944;-69
2023/04/22 08:30:53;;;;;;;4.77;4.47;;;18.50;60.30;;;;;;4993078;28;20438;-68
2023/04/22 08:33:21;;;;;;;4.17;3.87;;;18.50;60.10;;;;;;4992931;28;20467;-68
2023/04/22 08:35:48;;;;;;;4.03;3.73;;;18.40;62.80;;;;;;4993306;28;20453;-69
2023/04/22 08:38:15;;;;;;;4.27;3.90;;;18.40;62.90;;;;;;4992865;28;20443;-68
2023/04/22 08:40:42;;;;;;;4.30;3.60;;;18.40;61.50;;;;;;4993065;28;20497;-69
2023/04/22 08:43:09;;;;;;;4.47;4.07;;;18.40;63.70;;;;;;4989989;28;20473;-71
2023/04/22 08:45:39;;;;;;;4.60;4.20;;;18.30;59.10;;;;;;4992761;28;20590;-69
2023/04/22 08:48:07;;;;;;;5.00;4.30;;;18.40;62.00;;;;;;4992731;28;20446;-69
2023/04/22 08:50:38;;;;;;;4.83;4.43;;;18.50;60.00;;;;;;4992777;28;20431;-70
2023/04/22 08:53:04;;;;;;;4.80;4.07;;;18.50;59.70;;;;;;4991811;28;20466;-69
2023/04/22 08:55:32;;;;;;;4.20;3.80;;;18.60;60.00;;;;;;4992653;28;20434;-70
2023/04/22 08:58:02;;;;;;;3.83;3.53;;;18.60;60.80;;;;;;4993186;28;20457;-68
2023/04/22 09:00:29;;;;;;;4.47;3.43;;;18.80;60.10;;;;;;4991543;28;20455;-68
2023/04/22 09:02:58;;;;;;;3.80;3.40;;;19.10;60.10;;;;;;4996225;28;20466;-68
2023/04/22 09:05:27;;;;;;;4.00;3.30;;;19.40;56.90;;;;;;5011861;28;20487;-68
2023/04/22 09:07:56;;;;;;;4.10;3.67;;;19.50;57.90;;;;;;5011568;28;20442;-68
2023/04/22 09:10:23;;;;;;;3.33;2.80;;;19.80;59.20;;;;;;5011556;28;20450;-69
2023/04/22 09:12:51;;;;;;;3.33;3.10;;;19.90;55.70;;;;;;5008217;28;20461;-68
2023/04/22 09:15:21;;;;;;;3.57;3.27;;;20.20;56.50;;;;;;4992034;28;20435;-69
2023/04/22 09:17:50;;;;;;;5.90;3.77;;;20.40;56.20;;;;;;4991989;28;20435;-68
2023/04/22 09:20:18;;;;;;;3.70;3.00;;;20.70;56.00;;;;;;4991736;28;20442;-68
2023/04/22 09:22:50;;;;;;;5.90;3.00;;;20.80;54.40;;;;;;4990936;28;20479;-70
2023/04/22 09:25:20;;;;;;;2.60;2.40;;;21.10;53.10;;;;;;4991878;28;20478;-71
2023/04/22 09:27:51;;;;;;;2.70;2.50;;;21.40;53.50;;;;;;4981092;28;20451;-71
2023/04/22 09:30:19;;;;;;;3.77;3.33;;;22.10;51.70;;;;;;4972012;28;20440;-71
2023/04/22 09:32:52;;;;;;;2.87;2.67;;;22.70;50.90;;;;;;4970942;28;20467;-71
2023/04/22 09:35:26;;;;;;;2.90;2.70;;;23.00;48.70;;;;;;4972438;28;20436;-74
2023/04/22 09:37:52;;;;;;;4.00;2.70;;;23.20;47.90;;;;;;4972557;28;20443;-70
2023/04/22 09:40:21;;;;;;;3.60;2.47;;;23.20;48.60;;;;;;4972190;28;20451;-71
2023/04/22 09:42:49;;;;;;;5.33;3.13;;;23.30;47.00;;;;;;4994426;28;20472;-70
2023/04/22 09:45:32;;;;;;;3.80;2.30;;;23.60;46.20;;;;;;4993586;28;20597;-69
2023/04/22 09:48:02;;;;;;;4.50;2.90;;;23.90;46.90;;;;;;4988579;28;20454;-70
2023/04/22 09:50:29;;;;;;;4.27;3.47;;;24.00;47.50;;;;;;4987849;28;20459;-70
2023/04/22 09:52:59;;;;;;;3.97;3.57;;;24.00;47.60;;;;;;4984195;28;20483;-71
2023/04/22 09:55:28;;;;;;;3.20;2.90;;;24.10;46.50;;;;;;4996824;28;20438;-70
2023/04/22 09:57:57;;;;;;;3.03;2.83;;;24.20;46.90;;;;;;4985912;28;20451;-71
2023/04/22 10:00:27;;;;;;;2.83;2.63;;;24.30;47.50;;;;;;5002851;28;20438;-70
2023/04/22 10:02:54;;;;;;;3.47;2.57;;;24.80;46.40;;;;;;4990142;28;20476;-69
2023/04/22 10:05:21;;;;;;;5.53;2.90;;;25.10;45.50;;;;;;4991264;28;21034;-71
2023/04/22 10:07:48;;;;;;;3.40;2.57;;;25.60;44.60;;;;;;5003520;28;21123;-70
2023/04/22 10:10:15;;;;;;;2.93;2.53;;;26.00;41.10;;;;;;4996531;28;20452;-70
2023/04/22 10:12:43;;;;;;;8.20;3.00;;;25.80;42.40;;;;;;4974650;28;20469;-70
2023/04/22 10:15:11;;;;;;;3.37;3.07;;;25.90;44.10;;;;;;4985219;28;20532;-70
2023/04/22 10:17:39;;;;;;;2.87;2.57;;;25.90;41.70;;;;;;4984190;28;20466;-72
2023/04/22 10:20:12;;;;;;;4.20;3.27;;;25.50;43.10;;;;;;4989444;28;20502;-70
2023/04/22 10:22:41;;;;;;;4.03;3.73;;;25.50;40.90;;;;;;4985484;28;20523;-71
2023/04/22 10:25:12;;;;;;;2.73;2.53;;;25.70;43.50;;;;;;4986470;28;20528;-69
2023/04/22 10:27:40;;;;;;;3.83;2.60;;;26.10;39.50;;;;;;4979588;28;20451;-72
2023/04/22 10:30:10;;;;;;;2.80;2.60;;;26.50;39.60;;;;;;4979025;28;20470;-71
2023/04/22 10:32:37;;;;;;;2.60;2.20;;;26.80;39.60;;;;;;4979180;28;20520;-71
2023/04/22 10:35:09;;;;;;;2.63;2.43;;;27.00;39.20;;;;;;4980908;28;20455;-73
2023/04/22 10:37:37;;;;;;;3.43;2.60;;;27.20;40.20;;;;;;4977697;28;20543;-73
2023/04/22 10:40:11;;;;;;;2.90;2.70;;;27.40;40.40;;;;;;4980664;28;20466;-73
2023/04/22 10:42:40;;;;;;;3.60;2.63;;;27.60;38.50;;;;;;4984136;28;20478;-72
2023/04/22 10:45:13;;;;;;;3.57;2.60;;;27.80;38.80;;;;;;4981810;28;20446;-73
2023/04/22 10:47:40;;;;;;;2.50;2.30;;;28.10;38.30;;;;;;4983373;28;20851;-73
2023/04/22 10:50:13;;;;;;;3.20;2.53;;;28.10;37.80;;;;;;4983442;28;20509;-71
2023/04/22 10:52:40;;;;;;;2.53;2.33;;;28.00;37.90;;;;;;4979315;28;20473;-72
2023/04/22 10:55:07;;;;;;;2.43;2.23;;;28.20;38.20;;;;;;4976355;28;20442;-73
2023/04/22 10:57:38;;;;;;;2.60;2.00;;;28.20;37.40;;;;;;4983868;28;20481;-73
2023/04/22 11:00:35;;;;;;;2.70;2.50;;;28.40;36.50;;;;;;4982831;28;20908;-73
2023/04/22 11:03:13;;;;;;;3.13;2.40;;;28.10;36.40;;;;;;4975267;28;20482;-73
2023/04/22 11:05:40;;;;;;;2.70;2.50;;;28.30;37.50;;;;;;4982381;28;20482;-73
2023/04/22 11:08:11;;;;;;;2.07;1.87;;;28.50;35.10;;;;;;4982625;28;20499;-73
2023/04/22 11:10:43;;;;;;;2.40;2.20;;;28.80;33.90;;;;;;4982337;28;20447;-74
2023/04/22 11:13:13;;;;;;;4.03;3.73;;;28.80;33.30;;;;;;4979781;28;20490;-73
2023/04/22 11:15:42;;;;;;;2.93;2.40;;;28.90;35.40;;;;;;4984727;28;20443;-72
2023/04/22 11:18:22;;;;;;;3.00;1.90;;;28.70;34.20;;;;;;4986979;28;20987;-70
2023/04/22 11:20:50;;;;;;;2.40;2.20;;;29.10;35.60;;;;;;4981493;28;20442;-70
2023/04/22 11:23:23;;;;;;;2.97;2.23;;;29.40;34.40;;;;;;4977935;28;20479;-72
2023/04/22 11:25:56;;;;;;;2.30;2.03;;;29.50;32.70;;;;;;4986980;28;20505;-72
2023/04/22 11:28:23;;;;;;;2.40;2.07;;;29.80;34.20;;;;;;4989159;28;20447;-71
2023/04/22 11:30:50;;;;;;;2.90;2.03;;;30.00;29.80;;;;;;4989589;28;20441;-72
2023/04/22 11:33:17;;;;;;;3.93;2.50;;;30.00;32.20;;;;;;4980078;28;20545;-71
2023/04/22 11:35:46;;;;;;;2.73;2.33;;;29.80;29.40;;;;;;4985616;28;20435;-71
2023/04/22 11:38:12;;;;;;;2.97;2.27;;;30.00;30.20;;;;;;4988069;28;20454;-72
2023/04/22 11:40:41;;;;;;;6.03;2.57;;;29.60;29.00;;;;;;4988082;28;20462;-72
2023/04/22 11:43:09;;;;;;;3.50;2.30;;;29.40;31.10;;;;;;4986845;28;20982;-73
2023/04/22 11:45:38;;;;;;;2.30;2.03;;;29.20;31.50;;;;;;4989096;28;20454;-72
2023/04/22 11:48:07;;;;;;;3.47;2.30;;;28.80;30.30;;;;;;4978037;28;20834;-72
2023/04/22 11:50:37;;;;;;;3.80;2.27;;;28.40;29.00;;;;;;4982978;28;20450;-72
2023/04/22 11:53:12;;;;;;;2.77;2.40;;;27.90;30.90;;;;;;4983082;28;20467;-72
2023/04/22 11:55:40;;;;;;;2.50;2.10;;;27.70;30.00;;;;;;4978488;28;20465;-71
2023/04/22 11:58:09;;;;;;;3.03;1.70;;;27.00;29.60;;;;;;4985001;28;20446;-72
2023/04/22 12:00:39;;;;;;;3.70;1.80;;;26.50;31.30;;;;;;4982483;28;20451;-71
2023/04/22 12:03:12;;;;;;;3.33;1.97;;;26.60;32.30;;;;;;4976632;28;21008;-72
2023/04/22 12:05:40;;;;;;;4.10;2.10;;;26.50;30.40;;;;;;4978770;28;20450;-71
2023/04/22 12:08:11;;;;;;;3.77;1.87;;;26.10;33.90;;;;;;4980036;28;20454;-71
2023/04/22 12:10:43;;;;;;;4.43;2.10;;;26.10;35.10;;;;;;4985194;28;20446;-72
2023/04/22 12:13:10;;;;;;;3.00;2.00;;;26.00;30.80;;;;;;4985059;28;20470;-71
2023/04/22 12:15:42;;;;;;;2.67;1.90;;;25.80;32.30;;;;;;4986331;28;20447;-72
2023/04/22 12:18:11;;;;;;;4.03;2.10;;;26.10;34.00;;;;;;4981231;28;20447;-71
2023/04/22 12:20:39;;;;;;;4.00;2.00;;;26.50;33.10;;;;;;4984208;28;20542;-71
2023/04/22 12:23:14;;;;;;;5.20;2.27;;;26.30;30.70;;;;;;4980833;28;20562;-71
2023/04/22 12:25:42;;;;;;;4.03;2.30;;;26.20;34.50;;;;;;4983205;28;20458;-71
2023/04/22 12:28:09;;;;;;;4.53;2.77;;;25.80;32.30;;;;;;4978692;28;20450;-71
2023/04/22 12:30:36;;;;;;;2.77;2.57;;;25.20;34.00;;;;;;4984344;28;20481;-71
2023/04/22 12:33:03;;;;;;;3.97;2.70;;;24.80;34.90;;;;;;4980833;28;20509;-71
2023/04/22 12:35:30;;;;;;;2.87;2.57;;;24.70;36.00;;;;;;4982205;28;20466;-71
2023/04/22 12:37:57;;;;;;;2.53;2.33;;;24.60;34.20;;;;;;4983285;28;20447;-71
2023/04/22 12:40:25;;;;;;;3.60;2.70;;;24.30;35.00;;;;;;4982562;28;20812;-71
2023/04/22 12:42:51;;;;;;;2.40;2.20;;;24.00;34.70;;;;;;4983638;28;20474;-72
2023/04/22 12:45:18;;;;;;;5.33;2.27;;;24.30;36.40;;;;;;4986692;28;20455;-71